Time;durP1;ratioP1;P1;durP2;ratioP2;P2;SDS_P1;SDS_P2;PMS_P1;PMS_P2;Temp;Humidity;BMP_temperature;BMP_pressure;BME280_temperature;BME280_humidity;BME280_pressure;Samples;Min_cycle;Max_cycle;Signal;HPM_P1;HPM_P2
2020/11/09 00:01:38;;;;;;;6.1;2.1;;;;;;;5.61;81.80273;944.4836;;;;
2020/11/09 00:04:03;;;;;;;5.9;2.4;;;;;;;5.69;81.7832;944.4131;;;;
2020/11/09 00:06:29;;;;;;;6.4;2.4;;;;;;;5.7;81.77148;944.4899;;;;
2020/11/09 00:08:54;;;;;;;6.6;2.1;;;;;;;5.62;82.52539;944.483;;;;
2020/11/09 00:11:19;;;;;;;5.6;2.2;;;;;;;5.62;82.78516;944.492;;;;
2020/11/09 00:13:46;;;;;;;8.1;2.8;;;;;;;5.62;82.88672;944.4649;;;;
2020/11/09 00:16:13;;;;;;;6.1;1.9;;;;;;;5.65;82.36133;944.4542;;;;
2020/11/09 00:18:38;;;;;;;5.2;2.4;;;;;;;5.62;82.20996;944.5905;;;;
2020/11/09 00:21:05;;;;;;;5.9;2.5;;;;;;;5.65;82.12402;944.5539;;;;
2020/11/09 00:23:30;;;;;;;9.3;2.1;;;;;;;5.64;81.99805;944.5361;;;;
2020/11/09 00:25:58;;;;;;;4.8;2.5;;;;;;;5.64;81.81738;944.5478;;;;
2020/11/09 00:28:23;;;;;;;5.8;2.5;;;;;;;5.63;81.79492;944.5303;;;;
2020/11/09 00:30:53;;;;;;;4.9;2.1;;;;;;;5.63;81.30957;944.5681;;;;
2020/11/09 00:33:19;;;;;;;5.9;2.4;;;;;;;5.59;81.32422;944.567;;;;
2020/11/09 00:35:51;;;;;;;5;2.3;;;;;;;5.55;81.42773;944.5402;;;;
2020/11/09 00:38:17;;;;;;;3.6;2.2;;;;;;;5.49;81.78809;944.4993;;;;
2020/11/09 00:40:51;;;;;;;4.7;2.3;;;;;;;5.46;82.26855;944.4695;;;;
2020/11/09 00:43:16;;;;;;;3.9;1.9;;;;;;;5.47;82.25879;944.4525;;;;
2020/11/09 00:45:53;;;;;;;6.4;1.6;;;;;;;5.48;82.01465;944.4903;;;;
2020/11/09 00:48:20;;;;;;;4.6;2;;;;;;;5.53;81.37988;944.3831;;;;
2020/11/09 00:50:53;;;;;;;4.9;1.7;;;;;;;5.51;81.66992;944.4281;;;;
2020/11/09 00:53:19;;;;;;;9;1.9;;;;;;;5.57;81.79297;944.3828;;;;
2020/11/09 00:55:50;;;;;;;5.8;1.9;;;;;;;5.48;81.86621;944.4348;;;;
2020/11/09 00:58:17;;;;;;;4;2.4;;;;;;;5.2;83.31348;944.4749;;;;
2020/11/09 01:00:53;;;;;;;4.4;2.1;;;;;;;5.13;83.7168;944.3843;;;;
2020/11/09 01:03:21;;;;;;;4.8;2.4;;;;;;;5.15;83.57422;944.5067;;;;
2020/11/09 01:05:56;;;;;;;4;2.5;;;;;;;5.2;83.53711;944.4998;;;;
2020/11/09 01:08:26;;;;;;;12.9;2.1;;;;;;;5.24;83.3418;944.4835;;;;
2020/11/09 01:11:01;;;;;;;5.2;1.9;;;;;;;5.26;83.06445;944.5199;;;;
2020/11/09 01:13:28;;;;;;;4.9;1.9;;;;;;;5.19;83.72754;944.4995;;;;
2020/11/09 01:15:53;;;;;;;4.9;2.1;;;;;;;;;;;;;
2020/11/09 01:18:18;;;;;;;3.4;1.8;;;;;;;;;;;;;
2020/11/09 01:20:43;;;;;;;3.8;1.7;;;;;;;;;;;;;
2020/11/09 01:23:09;;;;;;;3.8;1.8;;;;;;;;;;;;;
2020/11/09 01:25:34;;;;;;;4.3;1.9;;;;;;;;;;;;;
2020/11/09 01:28:00;;;;;;;6;1.6;;;;;;;;;;;;;
2020/11/09 01:30:26;;;;;;;6.2;1.9;;;;;;;;;;;;;
2020/11/09 01:32:51;;;;;;;5.6;1.7;;;;;;;;;;;;;
2020/11/09 01:35:17;;;;;;;3.8;2;;;;;;;;;;;;;
2020/11/09 01:37:43;;;;;;;3.9;1.7;;;;;;;;;;;;;
2020/11/09 01:40:09;;;;;;;2.2;1.5;;;;;;;;;;;;;
2020/11/09 01:42:35;;;;;;;6.4;2.3;;;;;;;;;;;;;
2020/11/09 01:45:00;;;;;;;1.8;1.3;;;;;;;;;;;;;
2020/11/09 01:47:25;;;;;;;2.6;1.7;;;;;;;;;;;;;
2020/11/09 01:49:55;;;;;;;5.6;2.2;;;;;;;;;;;;;
2020/11/09 01:52:15;;;;;;;3.1;1.7;;;;;;;;;;;;;
2020/11/09 01:54:41;;;;;;;4.8;1.8;;;;;;;;;;;;;
2020/11/09 01:57:06;;;;;;;4.6;2;;;;;;;;;;;;;
2020/11/09 01:59:31;;;;;;;2.9;1.4;;;;;;;;;;;;;
2020/11/09 02:01:59;;;;;;;5.7;1.8;;;;;;;;;;;;;
2020/11/09 02:04:28;;;;;;;10.6;1.5;;;;;;;;;;;;;
2020/11/09 02:06:53;;;;;;;5.8;2;;;;;;;;;;;;;
2020/11/09 02:09:21;;;;;;;2.3;1.3;;;;;;;;;;;;;
2020/11/09 02:11:47;;;;;;;4.4;1.3;;;;;;;;;;;;;
2020/11/09 02:14:19;;;;;;;7.3;1.7;;;;;;;;;;;;;
2020/11/09 02:16:44;;;;;;;12.3;1.8;;;;;;;;;;;;;
2020/11/09 02:19:12;;;;;;;3.6;1.6;;;;;;;;;;;;;
2020/11/09 02:21:37;;;;;;;1.9;1.4;;;;;;;;;;;;;
2020/11/09 02:24:06;;;;;;;3;1.3;;;;;;;;;;;;;
2020/11/09 02:26:31;;;;;;;5.1;2;;;;;;;;;;;;;
2020/11/09 02:28:59;;;;;;;3.3;1.7;;;;;;;;;;;;;
2020/11/09 02:31:24;;;;;;;4.2;1.5;;;;;;;;;;;;;
2020/11/09 02:33:49;;;;;;;4.7;2;;;;;;;;;;;;;
2020/11/09 02:36:14;;;;;;;2;1.2;;;;;;;;;;;;;
2020/11/09 02:38:39;;;;;;;2.4;1.3;;;;;;;;;;;;;
2020/11/09 02:41:05;;;;;;;6.6;1.5;;;;;;;;;;;;;
2020/11/09 02:43:30;;;;;;;1.9;1.3;;;;;;;;;;;;;
2020/11/09 02:46:02;;;;;;;5;1.8;;;;;;;;;;;;;
2020/11/09 02:48:27;;;;;;;7.7;1.8;;;;;;;;;;;;;
2020/11/09 02:50:53;;;;;;;5.9;1.6;;;;;;;;;;;;;
2020/11/09 02:53:20;;;;;;;4.7;2;;;;;;;;;;;;;
2020/11/09 02:55:46;;;;;;;5.8;2.6;;;;;;;;;;;;;
2020/11/09 02:58:12;;;;;;;5.7;1.6;;;;;;;;;;;;;
2020/11/09 03:00:38;;;;;;;2.3;1.5;;;;;;;;;;;;;
2020/11/09 03:03:06;;;;;;;6.3;1.4;;;;;;;;;;;;;
2020/11/09 03:05:31;;;;;;;3.6;1.8;;;;;;;;;;;;;
2020/11/09 03:07:57;;;;;;;5.8;1.7;;;;;;;;;;;;;
2020/11/09 03:10:22;;;;;;;2.8;1.4;;;;;;;;;;;;;
2020/11/09 03:12:49;;;;;;;7.5;2.5;;;;;;;;;;;;;
2020/11/09 03:15:15;;;;;;;2.3;1.6;;;;;;;;;;;;;
2020/11/09 03:17:43;;;;;;;4.6;1.9;;;;;;;;;;;;;
2020/11/09 03:20:08;;;;;;;4.9;2.1;;;;;;;;;;;;;
2020/11/09 03:22:37;;;;;;;8.2;2.2;;;;;;;;;;;;;
2020/11/09 03:25:04;;;;;;;9.7;2.1;;;;;;;;;;;;;
2020/11/09 03:27:30;;;;;;;5.1;2.2;;;;;;;;;;;;;
2020/11/09 03:29:59;;;;;;;3.4;1.8;;;;;;;;;;;;;
2020/11/09 03:32:22;;;;;;;4.1;2;;;;;;;;;;;;;
2020/11/09 03:34:52;;;;;;;7.3;1.8;;;;;;;;;;;;;
2020/11/09 03:37:19;;;;;;;5.3;1.8;;;;;;;;;;;;;
2020/11/09 03:39:46;;;;;;;9.8;2.1;;;;;;;;;;;;;
2020/11/09 03:42:13;;;;;;;6.8;1.9;;;;;;;;;;;;;
2020/11/09 03:44:38;;;;;;;3.6;1.6;;;;;;;;;;;;;
2020/11/09 03:47:08;;;;;;;3.9;1.4;;;;;;;;;;;;;
2020/11/09 03:49:36;;;;;;;2.9;1.6;;;;;;;;;;;;;
2020/11/09 03:52:01;;;;;;;9.4;1.7;;;;;;;;;;;;;
2020/11/09 03:54:27;;;;;;;2.4;1.6;;;;;;;;;;;;;
2020/11/09 03:56:56;;;;;;;7.7;1.3;;;;;;;;;;;;;
2020/11/09 03:59:25;;;;;;;2.7;1.4;;;;;;;;;;;;;
2020/11/09 04:02:32;;;;;;;3.3;1.8;;;;;;;5.03;82.37891;944.4066;;;;
2020/11/09 04:05:10;;;;;;;1.7;1.1;;;;;;;5.02;82.09473;944.4164;;;;
2020/11/09 04:07:37;;;;;;;5.5;1.5;;;;;;;4.94;82.21484;944.4033;;;;
2020/11/09 04:10:07;;;;;;;6.2;1.8;;;;;;;4.82;82.55078;944.3376;;;;
2020/11/09 04:12:34;;;;;;;4.3;1.5;;;;;;;4.74;83.29004;944.4099;;;;
2020/11/09 04:15:01;;;;;;;6.4;1.8;;;;;;;4.64;84.13965;944.3798;;;;
2020/11/09 04:17:33;;;;;;;10.7;2.1;;;;;;;4.5;84.6377;944.413;;;;
2020/11/09 04:20:18;;;;;;;4.2;1.7;;;;;;;4.41;84.83594;944.4495;;;;
2020/11/09 04:23:00;;;;;;;14.2;1.6;;;;;;;4.27;85.30176;944.4339;;;;
2020/11/09 04:25:38;;;;;;;5.6;1.7;;;;;;;4.32;85.4707;944.3894;;;;
2020/11/09 04:28:07;;;;;;;3;1.7;;;;;;;4.38;85.37988;944.325;;;;
2020/11/09 04:30:50;;;;;;;6.6;1.9;;;;;;;4.47;84.9834;944.4285;;;;
2020/11/09 04:33:28;;;;;;;5;1.6;;;;;;;4.49;84.76172;944.4822;;;;
2020/11/09 04:36:07;;;;;;;3.8;1.7;;;;;;;4.31;85.61523;944.4553;;;;
2020/11/09 04:38:43;;;;;;;5.6;1.6;;;;;;;4.35;85.66699;944.5364;;;;
2020/11/09 04:41:23;;;;;;;8.4;1.5;;;;;;;4.39;85.70996;944.5139;;;;
2020/11/09 04:43:56;;;;;;;7.4;1.9;;;;;;;4.47;85.13965;944.4944;;;;
2020/11/09 04:46:31;;;;;;;5.8;1.8;;;;;;;4.49;84.57031;944.5349;;;;
2020/11/09 04:48:56;;;;;;;4;1.9;;;;;;;4.36;84.91504;944.536;;;;
2020/11/09 04:51:26;;;;;;;5.2;1.8;;;;;;;4.38;84.59375;944.5339;;;;
2020/11/09 04:54:01;;;;;;;10.7;2.3;;;;;;;4.35;84.35254;944.5588;;;;
2020/11/09 04:56:32;;;;;;;6;1.9;;;;;;;4.32;84.60449;944.5219;;;;
2020/11/09 04:59:01;;;;;;;2.5;1.4;;;;;;;4.15;85.50391;944.5245;;;;
2020/11/09 05:01:28;;;;;;;4.3;2;;;;;;;4.03;86.50195;944.5356;;;;
2020/11/09 05:04:00;;;;;;;6.3;2.1;;;;;;;4.01;86.93848;944.4824;;;;
2020/11/09 05:06:38;;;;;;;10.7;2;;;;;;;4.11;86.83496;944.3958;;;;
2020/11/09 05:09:03;;;;;;;4.7;2.1;;;;;;;4.05;87.01465;944.4289;;;;
2020/11/09 05:11:38;;;;;;;5.2;1.9;;;;;;;3.99;87.59668;944.4645;;;;
2020/11/09 05:14:06;;;;;;;6.3;1.4;;;;;;;4;87.78906;944.5144;;;;
2020/11/09 05:16:36;;;;;;;4.3;1.6;;;;;;;3.98;87.91113;944.4917;;;;
2020/11/09 05:19:05;;;;;;;6.7;1.7;;;;;;;3.93;88.10059;944.4955;;;;
2020/11/09 05:21:36;;;;;;;5.1;1.6;;;;;;;4.08;87.61719;944.4813;;;;
2020/11/09 05:24:06;;;;;;;2.4;1.5;;;;;;;4.22;86.8457;944.4412;;;;
2020/11/09 05:26:31;;;;;;;5.1;1.6;;;;;;;4.33;86.35938;944.5173;;;;
2020/11/09 05:28:58;;;;;;;6.1;2.3;;;;;;;4.29;86.06152;944.5302;;;;
2020/11/09 05:31:39;;;;;;;10.8;2.1;;;;;;;4.31;85.57031;944.5073;;;;
2020/11/09 05:34:14;;;;;;;12.3;1.9;;;;;;;4.31;85.53613;944.546;;;;
2020/11/09 05:36:51;;;;;;;4.5;1.8;;;;;;;4.33;85.16895;944.5388;;;;
2020/11/09 05:39:22;;;;;;;10.4;2.9;;;;;;;4.27;85.59473;944.5298;;;;
2020/11/09 05:41:49;;;;;;;5.7;2.1;;;;;;;4.26;85.94336;944.6078;;;;
2020/11/09 05:44:20;;;;;;;3.7;2;;;;;;;4.13;86.7041;944.6481;;;;
2020/11/09 05:46:53;;;;;;;7.4;3;;;;;;;4.13;86.41113;944.6488;;;;
2020/11/09 05:49:19;;;;;;;6.3;3;;;;;;;4.07;86.48828;944.6376;;;;
2020/11/09 05:51:49;;;;;;;12.5;2.9;;;;;;;4.08;86.42285;944.6813;;;;
2020/11/09 05:54:19;;;;;;;6.9;2.9;;;;;;;4.06;86.27246;944.6347;;;;
2020/11/09 05:56:49;;;;;;;4.8;1.8;;;;;;;3.97;86.89746;944.6008;;;;
2020/11/09 05:59:19;;;;;;;4;1.9;;;;;;;3.92;87.69434;944.6378;;;;
2020/11/09 06:01:49;;;;;;;11.7;1.9;;;;;;;3.98;87.22559;944.6588;;;;
2020/11/09 06:04:15;;;;;;;5.7;2;;;;;;;4.11;86.93652;944.6797;;;;
2020/11/09 06:06:42;;;;;;;10.9;1.9;;;;;;;4.07;87.3877;944.6439;;;;
2020/11/09 06:09:14;;;;;;;7.7;1.8;;;;;;;4.1;87.60742;944.7042;;;;
2020/11/09 06:11:44;;;;;;;5.3;1.8;;;;;;;4.25;86.6377;944.6599;;;;
2020/11/09 06:14:12;;;;;;;10.8;1.9;;;;;;;4.31;86.24512;944.7034;;;;
2020/11/09 06:16:40;;;;;;;12.2;2.1;;;;;;;4.23;86.48926;944.7515;;;;
2020/11/09 06:19:13;;;;;;;4.9;2.4;;;;;;;4.2;86.59473;944.7405;;;;
2020/11/09 06:21:43;;;;;;;4.2;2.5;;;;;;;4.27;86.41602;944.7751;;;;
2020/11/09 06:24:16;;;;;;;5.8;2.6;;;;;;;4.3;85.99414;944.8267;;;;
2020/11/09 06:26:46;;;;;;;10.6;2.4;;;;;;;4.41;85.36621;944.8203;;;;
2020/11/09 06:29:18;;;;;;;6.5;2.8;;;;;;;4.48;84.87305;944.8483;;;;
2020/11/09 06:31:44;;;;;;;13.1;3.3;;;;;;;4.44;84.67383;944.867;;;;
2020/11/09 06:34:09;;;;;;;8.2;2.6;;;;;;;4.26;85.37891;944.8636;;;;
2020/11/09 06:36:38;;;;;;;4.5;2;;;;;;;4.21;85.80859;944.9285;;;;
2020/11/09 06:39:06;;;;;;;8;2.7;;;;;;;4.29;85.94922;944.9202;;;;
2020/11/09 06:41:36;;;;;;;6.2;2.1;;;;;;;4.46;85.19336;944.9576;;;;
2020/11/09 06:44:05;;;;;;;8.5;2.3;;;;;;;4.63;84.64258;944.97;;;;
2020/11/09 06:46:38;;;;;;;5;2.1;;;;;;;4.65;84.21777;945.0182;;;;
2020/11/09 06:49:05;;;;;;;5.4;2.5;;;;;;;4.78;83.91797;945.0442;;;;
2020/11/09 06:51:35;;;;;;;19.7;2.4;;;;;;;4.91;83.35742;945.0742;;;;
2020/11/09 06:54:04;;;;;;;9.9;1.8;;;;;;;5.07;82.9375;945.1351;;;;
2020/11/09 06:56:30;;;;;;;14.6;2.1;;;;;;;5.2;82.79297;945.1283;;;;
2020/11/09 06:59:00;;;;;;;9.5;1.6;;;;;;;5.47;81.1416;945.0742;;;;
2020/11/09 07:01:29;;;;;;;10.9;2.5;;;;;;;5.74;79.75977;945.1276;;;;
2020/11/09 07:03:58;;;;;;;10.6;2.7;;;;;;;6.01;78.71582;945.1436;;;;
2020/11/09 07:06:32;;;;;;;5.7;2.4;;;;;;;6.19;77.29883;945.1548;;;;
2020/11/09 07:08:57;;;;;;;11.1;2.3;;;;;;;6.08;77.41602;945.121;;;;
2020/11/09 07:11:37;;;;;;;9.5;2.7;;;;;;;6.14;77.42578;945.2186;;;;
2020/11/09 07:14:04;;;;;;;6.6;2.5;;;;;;;6.24;77.12891;945.2045;;;;
2020/11/09 07:16:36;;;;;;;6.1;2.4;;;;;;;6.35;77.1582;945.2155;;;;
2020/11/09 07:19:04;;;;;;;8.2;1.9;;;;;;;6.4;76.8291;945.2056;;;;
2020/11/09 07:21:30;;;;;;;4.1;1.9;;;;;;;6.63;76.29395;945.2389;;;;
2020/11/09 07:23:55;;;;;;;5.6;2.1;;;;;;;6.52;76.47852;945.2656;;;;
2020/11/09 07:26:20;;;;;;;12.3;2.5;;;;;;;6.9;75.61621;945.2857;;;;
2020/11/09 07:28:49;;;;;;;8.3;2.6;;;;;;;7.33;73.66406;945.2492;;;;
2020/11/09 07:31:21;;;;;;;6.7;2.9;;;;;;;7.69;71.75098;945.2494;;;;
2020/11/09 07:33:47;;;;;;;4.8;2.2;;;;;;;7.97;70.57324;945.2165;;;;
2020/11/09 07:36:18;;;;;;;4.8;2.3;;;;;;;8.3;68.95703;945.1465;;;;
2020/11/09 07:38:43;;;;;;;3.3;1.6;;;;;;;8.3;68.82031;945.2473;;;;
2020/11/09 07:41:16;;;;;;;5.5;1.8;;;;;;;9.33;65.78711;945.2294;;;;
2020/11/09 07:43:51;;;;;;;8.1;2.2;;;;;;;9.69;64.05371;945.2222;;;;
2020/11/09 07:46:20;;;;;;;7.7;1.6;;;;;;;10.4;61.77246;945.2725;;;;
2020/11/09 07:48:45;;;;;;;8.4;2.7;;;;;;;10.94;59.63281;945.2453;;;;
2020/11/09 07:51:17;;;;;;;8.3;1.7;;;;;;;10.97;59.16797;945.1742;;;;
2020/11/09 07:53:42;;;;;;;3.5;1.8;;;;;;;11.98;56.19043;945.166;;;;
2020/11/09 07:56:09;;;;;;;3.8;1.8;;;;;;;12.99;52.93359;945.1752;;;;
2020/11/09 07:58:35;;;;;;;4;1.3;;;;;;;13.44;50.8623;945.1322;;;;
2020/11/09 08:01:04;;;;;;;5;1.5;;;;;;;12.85;51.72363;945.12;;;;
2020/11/09 08:03:29;;;;;;;2.7;1.2;;;;;;;13.35;51.63379;945.103;;;;
2020/11/09 08:05:55;;;;;;;2.1;1.2;;;;;;;14.03;49.73242;945.1483;;;;
2020/11/09 08:08:20;;;;;;;3;1.3;;;;;;;14.19;49.40723;945.1094;;;;
2020/11/09 08:10:54;;;;;;;4.9;0.9;;;;;;;13.26;50.72656;945.0446;;;;
2020/11/09 08:13:19;;;;;;;4.9;1.1;;;;;;;12.8;51.72852;945.0215;;;;
2020/11/09 08:15:49;;;;;;;6.4;0.8;;;;;;;12.29;53.88086;945.0625;;;;
2020/11/09 08:18:15;;;;;;;14.9;1.7;;;;;;;12.85;51.49316;945.06;;;;
2020/11/09 08:20:40;;;;;;;1.6;0.9;;;;;;;12.44;52.87891;945.0248;;;;
2020/11/09 08:23:08;;;;;;;3.8;1.4;;;;;;;13.29;51.44141;945.0416;;;;
2020/11/09 08:25:33;;;;;;;8.9;1.5;;;;;;;13.63;49.7002;945.0245;;;;
2020/11/09 08:28:01;;;;;;;11.1;1.5;;;;;;;12.83;51.58203;944.983;;;;
2020/11/09 08:30:26;;;;;;;7.8;1.8;;;;;;;12.55;53.60254;944.9239;;;;
2020/11/09 08:32:55;;;;;;;2.4;1;;;;;;;12.86;52.11328;944.9363;;;;
2020/11/09 08:35:20;;;;;;;3.9;1;;;;;;;13.42;51.32031;944.9088;;;;
2020/11/09 08:37:46;;;;;;;1.5;0.9;;;;;;;13.6;50.68555;944.9383;;;;
2020/11/09 08:40:17;;;;;;;9.1;1.3;;;;;;;13.55;50.15137;944.8579;;;;
2020/11/09 08:42:42;;;;;;;13.2;1.2;;;;;;;12.56;52.65234;944.8187;;;;
2020/11/09 08:45:16;;;;;;;5.1;2.3;;;;;;;12.11;54.25977;944.8322;;;;
2020/11/09 08:47:41;;;;;;;3.4;1.3;;;;;;;11.32;56.59668;944.8885;;;;
2020/11/09 08:50:08;;;;;;;7.9;2.1;;;;;;;10.89;58.06055;944.8278;;;;
2020/11/09 08:52:33;;;;;;;6.6;1.7;;;;;;;10.87;59.29102;944.8472;;;;
2020/11/09 08:54:59;;;;;;;6.7;1.7;;;;;;;10.79;58.87012;944.7722;;;;
2020/11/09 08:57:24;;;;;;;5.9;2.1;;;;;;;10.84;59.20801;944.7502;;;;
2020/11/09 08:59:51;;;;;;;7.9;1.7;;;;;;;10.8;59.625;944.7636;;;;
2020/11/09 09:02:18;;;;;;;17.6;1.7;;;;;;;10.69;59.62109;944.7782;;;;
2020/11/09 09:04:43;;;;;;;4.5;1.7;;;;;;;10.39;60.62988;944.704;;;;
2020/11/09 09:07:24;;;;;;;8.6;1.8;;;;;;;10.49;60.2793;944.7518;;;;
2020/11/09 09:09:36;;;;;;;2.4;0.9;;;;;;;10.48;60.4707;944.7076;;;;
2020/11/09 09:12:01;;;;;;;1.8;1;;;;;;;10.62;61.44922;944.7242;;;;
2020/11/09 09:14:27;;;;;;;8.5;1.4;;;;;;;10.71;60.18457;944.7037;;;;
2020/11/09 09:16:52;;;;;;;3.2;1.1;;;;;;;10.74;59.16016;944.6223;;;;
2020/11/09 09:19:21;;;;;;;4.8;1.1;;;;;;;10.8;59.20313;944.633;;;;
2020/11/09 09:21:46;;;;;;;3.1;1.6;;;;;;;10.85;59.9043;944.5903;;;;
2020/11/09 09:24:13;;;;;;;7;1.4;;;;;;;10.84;59.80176;944.6236;;;;
2020/11/09 09:26:39;;;;;;;4.5;1.3;;;;;;;10.72;58.01367;944.6281;;;;
2020/11/09 09:29:04;;;;;;;11.6;1.4;;;;;;;10.72;56.98633;944.6378;;;;
2020/11/09 09:31:29;;;;;;;11.8;1.6;;;;;;;10.85;56.72949;944.6102;;;;
2020/11/09 09:33:57;;;;;;;5.3;1.5;;;;;;;10.77;55.8623;944.5798;;;;
2020/11/09 09:36:22;;;;;;;4.7;1.1;;;;;;;10.94;57.10742;944.5658;;;;
2020/11/09 09:38:50;;;;;;;4.1;1.3;;;;;;;11.09;56.42969;944.5734;;;;
2020/11/09 09:41:15;;;;;;;4.9;1.6;;;;;;;11.34;55.83301;944.5389;;;;
2020/11/09 09:43:42;;;;;;;10.6;1.4;;;;;;;11.48;55.17578;944.5016;;;;
2020/11/09 09:46:07;;;;;;;8.5;1.3;;;;;;;11.62;55.05566;944.5024;;;;
2020/11/09 09:48:36;;;;;;;5.7;1.3;;;;;;;11.85;54.61621;944.5081;;;;
2020/11/09 09:51:01;;;;;;;6.9;1.5;;;;;;;11.71;53.52148;944.4742;;;;
2020/11/09 09:53:28;;;;;;;6.3;1.5;;;;;;;11.73;53.70801;944.3948;;;;
2020/11/09 09:55:53;;;;;;;2.8;1.4;;;;;;;11.97;54.71191;944.4811;;;;
2020/11/09 09:58:19;;;;;;;2.2;1.1;;;;;;;12.14;53.87305;944.4094;;;;
2020/11/09 10:00:48;;;;;;;4.4;1.4;;;;;;;12.21;52.98828;944.3879;;;;
2020/11/09 10:03:16;;;;;;;5.5;1.6;;;;;;;12.34;53.46191;944.3819;;;;
2020/11/09 10:05:41;;;;;;;2.3;1;;;;;;;12.61;51.61426;944.3845;;;;
2020/11/09 10:08:08;;;;;;;2.9;1;;;;;;;12.67;50.49609;944.3567;;;;
2020/11/09 10:10:33;;;;;;;1.8;0.8;;;;;;;12.85;50.50684;944.383;;;;
2020/11/09 10:12:58;;;;;;;5.5;1.5;;;;;;;13.28;49.79883;944.4001;;;;
2020/11/09 10:15:23;;;;;;;4.9;1.2;;;;;;;13.23;49.0918;944.3541;;;;
2020/11/09 10:17:48;;;;;;;4.2;1.6;;;;;;;13.32;49.97461;944.3492;;;;
2020/11/09 10:20:18;;;;;;;5.5;1.4;;;;;;;13.33;50.33105;944.3164;;;;
2020/11/09 10:22:45;;;;;;;3.4;1.5;;;;;;;13.38;51.15332;944.3289;;;;
2020/11/09 10:25:10;;;;;;;4.5;1.3;;;;;;;13.33;49.62012;944.3269;;;;
2020/11/09 10:27:37;;;;;;;7.5;1.7;;;;;;;13.4;49.46582;944.3362;;;;
2020/11/09 10:30:02;;;;;;;8.5;1.2;;;;;;;13.51;50.46875;944.2767;;;;
2020/11/09 10:32:29;;;;;;;5;1.9;;;;;;;13.67;49.89941;944.223;;;;
2020/11/09 10:34:54;;;;;;;5.7;1.4;;;;;;;13.68;47.47461;944.1766;;;;
2020/11/09 10:37:23;;;;;;;3.5;1.3;;;;;;;13.72;48.07715;944.1216;;;;
2020/11/09 10:39:49;;;;;;;0.8;0.6;;;;;;;13.75;47.125;944.113;;;;
2020/11/09 10:42:14;;;;;;;3.5;0.9;;;;;;;13.93;47.80176;944.0376;;;;
2020/11/09 10:44:39;;;;;;;8.9;1;;;;;;;13.99;46.10449;944.0339;;;;
2020/11/09 10:47:04;;;;;;;3.9;1.4;;;;;;;14.15;45.40723;943.9917;;;;
2020/11/09 10:49:29;;;;;;;6.4;1.5;;;;;;;13.99;45.36816;943.9289;;;;
2020/11/09 10:51:55;;;;;;;4.7;1.4;;;;;;;13.98;45.68945;943.8666;;;;
2020/11/09 10:54:20;;;;;;;6.2;1.1;;;;;;;14.17;46.67578;943.9109;;;;
2020/11/09 10:56:46;;;;;;;3.7;1.2;;;;;;;14.22;44.98926;943.8666;;;;
2020/11/09 10:59:11;;;;;;;4;1.4;;;;;;;14.4;45.24902;943.8025;;;;
2020/11/09 11:01:36;;;;;;;3.4;1.4;;;;;;;14.59;45.34863;943.79;;;;
2020/11/09 11:04:03;;;;;;;1.3;0.9;;;;;;;14.67;45.66895;943.7769;;;;
2020/11/09 11:06:28;;;;;;;4;1.3;;;;;;;14.78;45.98047;943.7611;;;;
2020/11/09 11:08:55;;;;;;;1.8;0.9;;;;;;;14.96;44.61523;943.7745;;;;
2020/11/09 11:11:20;;;;;;;4.3;1.4;;;;;;;14.97;44.4541;943.7802;;;;
2020/11/09 11:13:47;;;;;;;7.2;1.9;;;;;;;15.04;44.66895;943.7438;;;;
2020/11/09 11:16:12;;;;;;;2.6;0.6;;;;;;;15.15;44.80762;943.7245;;;;
2020/11/09 11:18:38;;;;;;;4.3;1.2;;;;;;;15.25;45.18652;943.6663;;;;
2020/11/09 11:21:04;;;;;;;1.3;0.7;;;;;;;15.29;45.42188;943.639;;;;
2020/11/09 11:23:29;;;;;;;5;1.2;;;;;;;15.24;46.91797;943.6214;;;;
2020/11/09 11:25:54;;;;;;;5.5;1.3;;;;;;;15.25;43.87109;943.5933;;;;
2020/11/09 11:28:20;;;;;;;3.9;1;;;;;;;15.72;43.98828;943.6516;;;;
2020/11/09 11:30:45;;;;;;;1.9;1;;;;;;;16.93;41.6416;943.6375;;;;
2020/11/09 11:33:12;;;;;;;5.2;1.4;;;;;;;18.98;37.56445;943.6117;;;;
2020/11/09 11:35:39;;;;;;;2.8;1.1;;;;;;;20.84;33.83008;943.6222;;;;
2020/11/09 11:38:03;;;;;;;4.8;1.4;;;;;;;22.31;31.93652;943.6091;;;;
2020/11/09 11:40:28;;;;;;;4.4;1.2;;;;;;;24.19;29.75195;943.5678;;;;
2020/11/09 11:42:53;;;;;;;4.2;0.6;;;;;;;25.9;26.7793;943.5762;;;;
2020/11/09 11:45:24;;;;;;;5.3;1.2;;;;;;;26.49;26.36523;943.5999;;;;
2020/11/09 11:47:51;;;;;;;4.2;1;;;;;;;27.76;25.12207;943.5619;;;;
2020/11/09 11:50:16;;;;;;;3.2;1.1;;;;;;;28.26;24.12695;943.5594;;;;
2020/11/09 11:52:41;;;;;;;2.9;1.3;;;;;;;28.54;23.45215;943.4847;;;;
2020/11/09 11:55:07;;;;;;;2.6;0.9;;;;;;;29;23.39355;943.5397;;;;
2020/11/09 11:57:32;;;;;;;8;1.5;;;;;;;29.65;23.0459;943.4501;;;;
2020/11/09 11:59:57;;;;;;;5.2;1.3;;;;;;;30.17;22.24902;943.4539;;;;
2020/11/09 12:02:22;;;;;;;2.9;1.2;;;;;;;31.13;21.18262;943.4412;;;;
2020/11/09 12:04:47;;;;;;;2.1;0.7;;;;;;;32.04;20.60254;943.3975;;;;
2020/11/09 12:07:12;;;;;;;2.5;1;;;;;;;31.67;20.57422;943.4006;;;;
2020/11/09 12:09:37;;;;;;;4.5;1.1;;;;;;;31.78;20.61426;943.3925;;;;
2020/11/09 12:12:03;;;;;;;2.7;0.6;;;;;;;31.61;20.78613;943.4203;;;;
2020/11/09 12:14:29;;;;;;;2.5;0.9;;;;;;;32.02;20.84082;943.389;;;;
2020/11/09 12:16:55;;;;;;;1.3;0.7;;;;;;;30.76;22.1582;943.3959;;;;
2020/11/09 12:19:20;;;;;;;1.9;0.7;;;;;;;31.34;21.10938;943.3681;;;;
2020/11/09 12:21:46;;;;;;;4.5;1.4;;;;;;;31.45;20.89844;943.3624;;;;
2020/11/09 12:24:11;;;;;;;4.4;1.2;;;;;;;31.68;20.27441;943.3735;;;;
2020/11/09 12:26:39;;;;;;;2.1;1;;;;;;;30.99;21.15234;943.3433;;;;
2020/11/09 12:29:04;;;;;;;2.3;0.8;;;;;;;30.91;21.73535;943.3045;;;;
2020/11/09 12:31:33;;;;;;;0.8;0.7;;;;;;;30.34;21.4209;943.3055;;;;
2020/11/09 12:33:58;;;;;;;3.6;0.8;;;;;;;30.78;21.29883;943.3033;;;;
2020/11/09 12:36:23;;;;;;;2.5;0.7;;;;;;;31.15;21.20801;943.2837;;;;
2020/11/09 12:38:48;;;;;;;2.6;0.9;;;;;;;31.14;20.72949;943.2435;;;;
2020/11/09 12:41:13;;;;;;;2.2;0.8;;;;;;;31.52;20.92578;943.2009;;;;
2020/11/09 12:43:38;;;;;;;5.2;0.9;;;;;;;32.08;20.16113;943.2701;;;;
2020/11/09 12:46:05;;;;;;;6;1.3;;;;;;;32.38;20.4502;943.2357;;;;
2020/11/09 12:48:30;;;;;;;3.6;0.9;;;;;;;32.76;20.16699;943.217;;;;
2020/11/09 12:50:56;;;;;;;7;1.2;;;;;;;32.27;19.96582;943.2021;;;;
2020/11/09 12:53:21;;;;;;;6;1.3;;;;;;;32.06;20.4834;943.1539;;;;
2020/11/09 12:55:49;;;;;;;3.4;0.8;;;;;;;31.01;21.58398;943.1264;;;;
2020/11/09 12:58:14;;;;;;;2.6;1;;;;;;;30.86;21.78027;943.1883;;;;
2020/11/09 13:00:43;;;;;;;2.8;1.5;;;;;;;31.56;21.50195;943.2164;;;;
2020/11/09 13:03:08;;;;;;;2.4;0.7;;;;;;;31.74;21.06738;943.1451;;;;
2020/11/09 13:05:36;;;;;;;5.7;1.5;;;;;;;31.98;20.85156;943.1511;;;;
2020/11/09 13:08:01;;;;;;;3.6;1.1;;;;;;;32.46;20.63379;943.0814;;;;
2020/11/09 13:10:26;;;;;;;3.1;1.2;;;;;;;32.34;20.68848;943.1191;;;;
2020/11/09 13:12:51;;;;;;;7.4;1;;;;;;;32.57;20.31445;943.0938;;;;
2020/11/09 13:15:18;;;;;;;6.2;1.2;;;;;;;32.84;20.00293;943.1337;;;;
2020/11/09 13:17:43;;;;;;;2.7;1.1;;;;;;;33.17;19.80078;943.0499;;;;
2020/11/09 13:20:11;;;;;;;4.2;1.1;;;;;;;33.22;19.9834;943.0623;;;;
2020/11/09 13:22:36;;;;;;;9;1.8;;;;;;;33.43;19.74023;943.1047;;;;
2020/11/09 13:25:01;;;;;;;3.7;1.2;;;;;;;32.56;20.81836;943.0338;;;;
2020/11/09 13:27:26;;;;;;;3.8;1;;;;;;;33.04;20.17969;943.0936;;;;
2020/11/09 13:29:51;;;;;;;4.9;0.8;;;;;;;33.26;19.98438;943.0734;;;;
2020/11/09 13:32:17;;;;;;;5.4;1.7;;;;;;;32.13;20.99023;943.0284;;;;
2020/11/09 13:34:46;;;;;;;4;1.3;;;;;;;32.24;20.7793;943.0745;;;;
2020/11/09 13:37:11;;;;;;;4.8;1.4;;;;;;;32.46;21.01758;943.0616;;;;
2020/11/09 13:39:40;;;;;;;5.1;1;;;;;;;32.28;20.98535;943.0808;;;;
2020/11/09 13:42:05;;;;;;;2;0.8;;;;;;;31.81;21.49023;943.0842;;;;
2020/11/09 13:44:31;;;;;;;6;1;;;;;;;31.4;22.11719;943.1028;;;;
2020/11/09 13:46:56;;;;;;;9.9;1.8;;;;;;;30.57;22.75879;943.1395;;;;
2020/11/09 13:49:23;;;;;;;20.1;1.6;;;;;;;29.33;24.55469;943.0703;;;;
2020/11/09 13:51:49;;;;;;;2.9;0.8;;;;;;;28.95;24.89063;943.1013;;;;
2020/11/09 13:54:16;;;;;;;3;0.9;;;;;;;29.39;24.24805;943.0682;;;;
2020/11/09 13:56:41;;;;;;;9;1.2;;;;;;;30.01;23.56445;943.0918;;;;
2020/11/09 13:59:06;;;;;;;1.6;0.9;;;;;;;28.8;25.32227;943.0991;;;;
2020/11/09 14:01:32;;;;;;;4.4;1.2;;;;;;;29.41;24.72461;943.1592;;;;
2020/11/09 14:03:57;;;;;;;2.3;1.3;;;;;;;29.48;24.46777;943.1664;;;;
2020/11/09 14:06:23;;;;;;;3.2;1.2;;;;;;;29.7;24.18066;943.1923;;;;
2020/11/09 14:08:48;;;;;;;2.5;0.9;;;;;;;29.95;24.0625;943.2043;;;;
2020/11/09 14:11:13;;;;;;;4;0.8;;;;;;;29.49;24.43164;943.2019;;;;
2020/11/09 14:13:38;;;;;;;3.4;1.4;;;;;;;29.75;24.48145;943.233;;;;
2020/11/09 14:16:06;;;;;;;4.9;1.5;;;;;;;29.62;24.82031;943.2597;;;;
2020/11/09 14:18:31;;;;;;;2.4;1;;;;;;;29.29;25.39844;943.2413;;;;
2020/11/09 14:20:56;;;;;;;3.3;1.4;;;;;;;28.69;26.3877;943.2596;;;;
2020/11/09 14:23:22;;;;;;;7.1;1.3;;;;;;;28.93;26.30566;943.2549;;;;
2020/11/09 14:25:47;;;;;;;2.5;0.7;;;;;;;28.63;26.3125;943.2759;;;;
2020/11/09 14:28:15;;;;;;;5.2;1.7;;;;;;;28.27;26.88574;943.2664;;;;
2020/11/09 14:30:41;;;;;;;3;1.5;;;;;;;28.13;26.74609;943.3072;;;;
2020/11/09 14:33:06;;;;;;;4.2;1.5;;;;;;;27.66;28.03613;943.3187;;;;
2020/11/09 14:35:31;;;;;;;1.6;1.1;;;;;;;27.02;28.96777;943.3044;;;;
2020/11/09 14:37:57;;;;;;;3.5;1.2;;;;;;;26.82;29.38184;943.3848;;;;
2020/11/09 14:40:22;;;;;;;6.1;1.8;;;;;;;26.2;30.22852;943.4106;;;;
2020/11/09 14:42:47;;;;;;;7.2;1.7;;;;;;;25.81;30.4502;943.4579;;;;
2020/11/09 14:45:13;;;;;;;2.9;1.4;;;;;;;25.22;31.79102;943.4286;;;;
2020/11/09 14:47:38;;;;;;;5.8;1.2;;;;;;;23;35.60352;943.4387;;;;
2020/11/09 14:50:05;;;;;;;5.7;1;;;;;;;21.37;38.98535;943.4919;;;;
2020/11/09 14:52:30;;;;;;;1.6;1.1;;;;;;;20.64;40.39355;943.4911;;;;
2020/11/09 14:54:55;;;;;;;8.9;1.6;;;;;;;19.83;42.93164;943.5287;;;;
2020/11/09 14:57:20;;;;;;;4.7;1.6;;;;;;;19.41;43.68164;943.5211;;;;
2020/11/09 14:59:46;;;;;;;4.7;2.1;;;;;;;18.69;45.64746;943.5703;;;;
2020/11/09 15:02:11;;;;;;;2.8;1.4;;;;;;;18.33;46.76074;943.6699;;;;
2020/11/09 15:04:36;;;;;;;25.6;2.5;;;;;;;17.81;48.19141;943.6577;;;;
2020/11/09 15:07:02;;;;;;;6.8;2.2;;;;;;;17.68;47.85156;943.6895;;;;
2020/11/09 15:09:27;;;;;;;10.9;1.6;;;;;;;17.54;48.24316;943.7249;;;;
2020/11/09 15:11:54;;;;;;;4.5;2;;;;;;;17.04;49.30176;943.6909;;;;
2020/11/09 15:14:19;;;;;;;3.1;1.1;;;;;;;16.85;50.02148;943.753;;;;
2020/11/09 15:16:46;;;;;;;9.5;1.6;;;;;;;16.68;50.91699;943.7255;;;;
2020/11/09 15:19:13;;;;;;;2.8;1.4;;;;;;;16.5;51.24219;943.7925;;;;
2020/11/09 15:21:38;;;;;;;4.6;1.8;;;;;;;16.19;52.06348;943.7642;;;;